sensor_id;sensor_type;location;lat;lon;timestamp;P1;durP1;ratioP1;P2;durP2;ratioP2
22881;SDS011;11608;50.894;5.296;2022-12-10T00:01:08;57.13;;;46.20;;
22881;SDS011;11608;50.894;5.296;2022-12-10T00:03:35;61.23;;;47.27;;
22881;SDS011;11608;50.894;5.296;2022-12-10T00:06:02;54.80;;;43.37;;
22881;SDS011;11608;50.894;5.296;2022-12-10T00:08:28;56.30;;;45.47;;
22881;SDS011;11608;50.894;5.296;2022-12-10T00:10:54;64.83;;;47.07;;
22881;SDS011;11608;50.894;5.296;2022-12-10T00:13:21;55.67;;;44.87;;
22881;SDS011;11608;50.894;5.296;2022-12-10T00:15:47;59.73;;;45.17;;
22881;SDS011;11608;50.894;5.296;2022-12-10T00:18:15;55.20;;;45.60;;
22881;SDS011;11608;50.894;5.296;2022-12-10T00:20:41;62.17;;;47.20;;
22881;SDS011;11608;50.894;5.296;2022-12-10T00:23:07;54.60;;;45.37;;
22881;SDS011;11608;50.894;5.296;2022-12-10T00:25:33;53.07;;;44.67;;
22881;SDS011;11608;50.894;5.296;2022-12-10T00:27:59;65.47;;;47.90;;
22881;SDS011;11608;50.894;5.296;2022-12-10T00:30:25;57.83;;;47.13;;
22881;SDS011;11608;50.894;5.296;2022-12-10T00:32:51;62.33;;;48.50;;
22881;SDS011;11608;50.894;5.296;2022-12-10T00:35:17;60.47;;;47.10;;
22881;SDS011;11608;50.894;5.296;2022-12-10T00:37:43;63.70;;;48.97;;
22881;SDS011;11608;50.894;5.296;2022-12-10T00:40:09;63.23;;;46.63;;
22881;SDS011;11608;50.894;5.296;2022-12-10T00:42:36;59.63;;;46.87;;
22881;SDS011;11608;50.894;5.296;2022-12-10T00:45:05;59.27;;;46.43;;
22881;SDS011;11608;50.894;5.296;2022-12-10T00:47:31;63.30;;;48.40;;
22881;SDS011;11608;50.894;5.296;2022-12-10T00:49:58;67.57;;;49.00;;
22881;SDS011;11608;50.894;5.296;2022-12-10T00:52:24;62.40;;;49.70;;
22881;SDS011;11608;50.894;5.296;2022-12-10T00:54:50;62.33;;;48.10;;
22881;SDS011;11608;50.894;5.296;2022-12-10T00:57:16;63.73;;;48.33;;
22881;SDS011;11608;50.894;5.296;2022-12-10T00:59:42;63.47;;;47.47;;
22881;SDS011;11608;50.894;5.296;2022-12-10T01:02:08;52.43;;;42.80;;
22881;SDS011;11608;50.894;5.296;2022-12-10T01:04:34;60.03;;;43.87;;
22881;SDS011;11608;50.894;5.296;2022-12-10T01:07:00;60.80;;;46.47;;
22881;SDS011;11608;50.894;5.296;2022-12-10T01:09:27;51.73;;;41.77;;
22881;SDS011;11608;50.894;5.296;2022-12-10T01:11:54;62.10;;;45.83;;
22881;SDS011;11608;50.894;5.296;2022-12-10T01:14:25;59.57;;;46.23;;
22881;SDS011;11608;50.894;5.296;2022-12-10T01:16:55;55.17;;;43.40;;
22881;SDS011;11608;50.894;5.296;2022-12-10T01:19:22;54.47;;;44.50;;
22881;SDS011;11608;50.894;5.296;2022-12-10T01:21:52;59.67;;;46.90;;
22881;SDS011;11608;50.894;5.296;2022-12-10T01:24:18;55.67;;;44.03;;
22881;SDS011;11608;50.894;5.296;2022-12-10T01:26:45;48.57;;;42.23;;
22881;SDS011;11608;50.894;5.296;2022-12-10T01:29:11;46.47;;;40.90;;
22881;SDS011;11608;50.894;5.296;2022-12-10T01:31:38;51.70;;;44.57;;
22881;SDS011;11608;50.894;5.296;2022-12-10T01:34:05;52.97;;;43.87;;
22881;SDS011;11608;50.894;5.296;2022-12-10T01:36:34;54.77;;;45.37;;
22881;SDS011;11608;50.894;5.296;2022-12-10T01:39:01;56.70;;;46.17;;
22881;SDS011;11608;50.894;5.296;2022-12-10T01:41:32;56.80;;;45.60;;
22881;SDS011;11608;50.894;5.296;2022-12-10T01:44:00;60.83;;;48.13;;
22881;SDS011;11608;50.894;5.296;2022-12-10T01:46:27;62.67;;;46.80;;
22881;SDS011;11608;50.894;5.296;2022-12-10T01:48:54;60.33;;;46.80;;
22881;SDS011;11608;50.894;5.296;2022-12-10T01:51:20;65.63;;;48.57;;
22881;SDS011;11608;50.894;5.296;2022-12-10T01:53:47;53.87;;;44.03;;
22881;SDS011;11608;50.894;5.296;2022-12-10T01:56:14;57.10;;;43.97;;
22881;SDS011;11608;50.894;5.296;2022-12-10T01:58:41;59.33;;;44.90;;
22881;SDS011;11608;50.894;5.296;2022-12-10T02:01:08;64.10;;;49.13;;
22881;SDS011;11608;50.894;5.296;2022-12-10T02:03:38;59.27;;;45.87;;
22881;SDS011;11608;50.894;5.296;2022-12-10T02:06:31;58.07;;;47.50;;
22881;SDS011;11608;50.894;5.296;2022-12-10T02:09:16;60.53;;;47.80;;
22881;SDS011;11608;50.894;5.296;2022-12-10T02:11:44;66.23;;;48.87;;
22881;SDS011;11608;50.894;5.296;2022-12-10T02:16:40;64.80;;;48.97;;
22881;SDS011;11608;50.894;5.296;2022-12-10T02:21:37;62.53;;;47.17;;
22881;SDS011;11608;50.894;5.296;2022-12-10T02:24:07;56.13;;;45.47;;
22881;SDS011;11608;50.894;5.296;2022-12-10T02:31:37;68.17;;;49.60;;
22881;SDS011;11608;50.894;5.296;2022-12-10T02:34:07;67.70;;;49.50;;
22881;SDS011;11608;50.894;5.296;2022-12-10T02:36:35;68.43;;;49.93;;
22881;SDS011;11608;50.894;5.296;2022-12-10T02:39:03;60.47;;;46.53;;
22881;SDS011;11608;50.894;5.296;2022-12-10T02:41:35;58.07;;;45.50;;
22881;SDS011;11608;50.894;5.296;2022-12-10T02:44:04;58.87;;;44.13;;
22881;SDS011;11608;50.894;5.296;2022-12-10T02:46:31;54.60;;;42.83;;
22881;SDS011;11608;50.894;5.296;2022-12-10T02:48:58;57.93;;;44.63;;
22881;SDS011;11608;50.894;5.296;2022-12-10T02:51:26;53.20;;;42.27;;
22881;SDS011;11608;50.894;5.296;2022-12-10T02:53:59;56.33;;;44.57;;
22881;SDS011;11608;50.894;5.296;2022-12-10T02:59:38;57.73;;;43.50;;
22881;SDS011;11608;50.894;5.296;2022-12-10T03:02:19;62.97;;;45.77;;
22881;SDS011;11608;50.894;5.296;2022-12-10T03:04:53;62.03;;;44.77;;
22881;SDS011;11608;50.894;5.296;2022-12-10T03:07:25;61.20;;;44.90;;
22881;SDS011;11608;50.894;5.296;2022-12-10T03:09:55;59.67;;;45.80;;
22881;SDS011;11608;50.894;5.296;2022-12-10T03:12:30;58.20;;;45.00;;
22881;SDS011;11608;50.894;5.296;2022-12-10T03:15:00;62.80;;;45.23;;
22881;SDS011;11608;50.894;5.296;2022-12-10T03:17:28;58.50;;;43.70;;
22881;SDS011;11608;50.894;5.296;2022-12-10T03:19:55;60.47;;;44.83;;
22881;SDS011;11608;50.894;5.296;2022-12-10T03:22:23;63.07;;;46.37;;
22881;SDS011;11608;50.894;5.296;2022-12-10T03:24:49;70.27;;;47.23;;
22881;SDS011;11608;50.894;5.296;2022-12-10T03:27:16;68.63;;;48.33;;
22881;SDS011;11608;50.894;5.296;2022-12-10T03:29:47;71.53;;;47.83;;
22881;SDS011;11608;50.894;5.296;2022-12-10T03:32:14;66.37;;;49.37;;
22881;SDS011;11608;50.894;5.296;2022-12-10T03:34:41;72.30;;;50.07;;
22881;SDS011;11608;50.894;5.296;2022-12-10T03:37:08;70.90;;;49.07;;
22881;SDS011;11608;50.894;5.296;2022-12-10T03:39:34;66.70;;;47.87;;
22881;SDS011;11608;50.894;5.296;2022-12-10T03:42:00;69.10;;;47.20;;
22881;SDS011;11608;50.894;5.296;2022-12-10T03:44:30;65.37;;;46.90;;
22881;SDS011;11608;50.894;5.296;2022-12-10T03:46:56;62.13;;;44.67;;
22881;SDS011;11608;50.894;5.296;2022-12-10T03:49:22;70.63;;;48.70;;
22881;SDS011;11608;50.894;5.296;2022-12-10T03:51:49;60.13;;;43.00;;
22881;SDS011;11608;50.894;5.296;2022-12-10T03:54:15;68.13;;;47.40;;
22881;SDS011;11608;50.894;5.296;2022-12-10T03:56:43;66.97;;;46.27;;
22881;SDS011;11608;50.894;5.296;2022-12-10T03:59:09;57.73;;;44.60;;
22881;SDS011;11608;50.894;5.296;2022-12-10T04:01:35;67.93;;;47.83;;
22881;SDS011;11608;50.894;5.296;2022-12-10T04:04:02;64.90;;;45.43;;
22881;SDS011;11608;50.894;5.296;2022-12-10T04:06:28;62.43;;;46.70;;
22881;SDS011;11608;50.894;5.296;2022-12-10T04:08:54;66.43;;;47.20;;
22881;SDS011;11608;50.894;5.296;2022-12-10T04:11:20;63.37;;;45.77;;
22881;SDS011;11608;50.894;5.296;2022-12-10T04:13:48;62.90;;;46.20;;
22881;SDS011;11608;50.894;5.296;2022-12-10T04:16:33;67.87;;;49.27;;
22881;SDS011;11608;50.894;5.296;2022-12-10T04:19:04;68.33;;;47.17;;
22881;SDS011;11608;50.894;5.296;2022-12-10T04:21:31;63.70;;;46.30;;
22881;SDS011;11608;50.894;5.296;2022-12-10T04:24:16;70.47;;;48.47;;
22881;SDS011;11608;50.894;5.296;2022-12-10T04:27:03;70.60;;;47.40;;
22881;SDS011;11608;50.894;5.296;2022-12-10T04:29:29;73.40;;;49.87;;
22881;SDS011;11608;50.894;5.296;2022-12-10T04:31:56;70.43;;;48.63;;
22881;SDS011;11608;50.894;5.296;2022-12-10T04:34:22;74.57;;;50.47;;
22881;SDS011;11608;50.894;5.296;2022-12-10T04:36:49;73.13;;;49.00;;
22881;SDS011;11608;50.894;5.296;2022-12-10T04:39:15;82.03;;;52.07;;
22881;SDS011;11608;50.894;5.296;2022-12-10T04:41:41;69.70;;;47.03;;
22881;SDS011;11608;50.894;5.296;2022-12-10T04:44:08;70.93;;;49.40;;
22881;SDS011;11608;50.894;5.296;2022-12-10T04:46:34;68.37;;;48.73;;
22881;SDS011;11608;50.894;5.296;2022-12-10T04:49:00;67.83;;;49.00;;
22881;SDS011;11608;50.894;5.296;2022-12-10T04:51:26;71.80;;;48.13;;
22881;SDS011;11608;50.894;5.296;2022-12-10T04:53:52;67.47;;;48.43;;
22881;SDS011;11608;50.894;5.296;2022-12-10T04:56:18;73.97;;;47.53;;
22881;SDS011;11608;50.894;5.296;2022-12-10T04:58:45;71.17;;;48.63;;
22881;SDS011;11608;50.894;5.296;2022-12-10T05:01:11;76.77;;;49.00;;
22881;SDS011;11608;50.894;5.296;2022-12-10T05:03:37;77.33;;;50.97;;
22881;SDS011;11608;50.894;5.296;2022-12-10T05:06:07;73.10;;;48.83;;
22881;SDS011;11608;50.894;5.296;2022-12-10T05:08:33;75.23;;;47.27;;
22881;SDS011;11608;50.894;5.296;2022-12-10T05:11:03;69.67;;;46.47;;
22881;SDS011;11608;50.894;5.296;2022-12-10T05:13:30;69.63;;;47.33;;
22881;SDS011;11608;50.894;5.296;2022-12-10T05:15:56;75.27;;;48.13;;
22881;SDS011;11608;50.894;5.296;2022-12-10T05:18:22;69.93;;;47.00;;
22881;SDS011;11608;50.894;5.296;2022-12-10T05:20:48;65.83;;;45.90;;
22881;SDS011;11608;50.894;5.296;2022-12-10T05:23:15;60.80;;;42.83;;
22881;SDS011;11608;50.894;5.296;2022-12-10T05:26:06;64.00;;;44.00;;
22881;SDS011;11608;50.894;5.296;2022-12-10T05:28:35;65.17;;;45.57;;
22881;SDS011;11608;50.894;5.296;2022-12-10T05:31:02;70.83;;;44.53;;
22881;SDS011;11608;50.894;5.296;2022-12-10T05:33:28;69.33;;;44.97;;
22881;SDS011;11608;50.894;5.296;2022-12-10T05:35:54;65.70;;;46.00;;
22881;SDS011;11608;50.894;5.296;2022-12-10T05:38:21;66.90;;;46.20;;
22881;SDS011;11608;50.894;5.296;2022-12-10T05:40:47;59.10;;;45.17;;
22881;SDS011;11608;50.894;5.296;2022-12-10T05:43:13;61.13;;;45.57;;
22881;SDS011;11608;50.894;5.296;2022-12-10T05:45:40;62.27;;;44.27;;
22881;SDS011;11608;50.894;5.296;2022-12-10T05:48:06;64.10;;;45.13;;
22881;SDS011;11608;50.894;5.296;2022-12-10T05:50:32;65.57;;;46.07;;
22881;SDS011;11608;50.894;5.296;2022-12-10T05:52:58;68.00;;;45.93;;
22881;SDS011;11608;50.894;5.296;2022-12-10T05:55:24;63.60;;;45.07;;
22881;SDS011;11608;50.894;5.296;2022-12-10T05:57:52;72.43;;;46.63;;
22881;SDS011;11608;50.894;5.296;2022-12-10T06:00:18;71.67;;;47.40;;
22881;SDS011;11608;50.894;5.296;2022-12-10T06:02:45;66.63;;;46.50;;
22881;SDS011;11608;50.894;5.296;2022-12-10T06:05:11;67.27;;;46.77;;
22881;SDS011;11608;50.894;5.296;2022-12-10T06:07:37;66.80;;;47.30;;
22881;SDS011;11608;50.894;5.296;2022-12-10T06:10:03;71.17;;;45.97;;
22881;SDS011;11608;50.894;5.296;2022-12-10T06:12:29;58.47;;;43.87;;
22881;SDS011;11608;50.894;5.296;2022-12-10T06:14:55;63.70;;;44.50;;
22881;SDS011;11608;50.894;5.296;2022-12-10T06:17:21;72.43;;;47.90;;
22881;SDS011;11608;50.894;5.296;2022-12-10T06:19:47;68.20;;;47.13;;
22881;SDS011;11608;50.894;5.296;2022-12-10T06:22:13;71.97;;;48.27;;
22881;SDS011;11608;50.894;5.296;2022-12-10T06:24:39;69.77;;;46.17;;
22881;SDS011;11608;50.894;5.296;2022-12-10T06:27:05;69.77;;;47.03;;
22881;SDS011;11608;50.894;5.296;2022-12-10T06:29:32;68.10;;;46.43;;
22881;SDS011;11608;50.894;5.296;2022-12-10T06:31:58;69.97;;;46.87;;
22881;SDS011;11608;50.894;5.296;2022-12-10T06:34:24;67.70;;;45.83;;
22881;SDS011;11608;50.894;5.296;2022-12-10T06:36:50;70.90;;;46.43;;
22881;SDS011;11608;50.894;5.296;2022-12-10T06:39:16;55.93;;;40.87;;
22881;SDS011;11608;50.894;5.296;2022-12-10T06:41:42;61.33;;;43.03;;
22881;SDS011;11608;50.894;5.296;2022-12-10T06:44:09;61.70;;;43.37;;
22881;SDS011;11608;50.894;5.296;2022-12-10T06:46:35;58.50;;;42.07;;
22881;SDS011;11608;50.894;5.296;2022-12-10T06:49:02;60.17;;;42.77;;
22881;SDS011;11608;50.894;5.296;2022-12-10T06:51:28;64.23;;;43.50;;
22881;SDS011;11608;50.894;5.296;2022-12-10T06:53:55;60.20;;;42.90;;
22881;SDS011;11608;50.894;5.296;2022-12-10T06:56:21;66.17;;;45.00;;
22881;SDS011;11608;50.894;5.296;2022-12-10T06:58:47;58.53;;;43.13;;
22881;SDS011;11608;50.894;5.296;2022-12-10T07:01:20;61.73;;;44.67;;
22881;SDS011;11608;50.894;5.296;2022-12-10T07:03:51;63.90;;;43.50;;
22881;SDS011;11608;50.894;5.296;2022-12-10T07:06:17;67.83;;;44.50;;
22881;SDS011;11608;50.894;5.296;2022-12-10T07:08:44;63.07;;;43.60;;
22881;SDS011;11608;50.894;5.296;2022-12-10T07:11:11;57.70;;;39.93;;
22881;SDS011;11608;50.894;5.296;2022-12-10T07:13:37;57.20;;;40.40;;
22881;SDS011;11608;50.894;5.296;2022-12-10T07:16:11;62.47;;;42.20;;
22881;SDS011;11608;50.894;5.296;2022-12-10T07:18:37;61.60;;;43.63;;
22881;SDS011;11608;50.894;5.296;2022-12-10T07:21:12;55.90;;;40.43;;
22881;SDS011;11608;50.894;5.296;2022-12-10T07:23:38;63.27;;;42.40;;
22881;SDS011;11608;50.894;5.296;2022-12-10T07:26:04;60.63;;;43.50;;
22881;SDS011;11608;50.894;5.296;2022-12-10T07:28:30;66.20;;;44.43;;
22881;SDS011;11608;50.894;5.296;2022-12-10T07:31:03;65.53;;;44.60;;
22881;SDS011;11608;50.894;5.296;2022-12-10T07:33:29;61.43;;;44.03;;
22881;SDS011;11608;50.894;5.296;2022-12-10T07:35:55;69.50;;;46.13;;
22881;SDS011;11608;50.894;5.296;2022-12-10T07:38:24;64.60;;;45.63;;
22881;SDS011;11608;50.894;5.296;2022-12-10T07:40:51;64.10;;;46.17;;
22881;SDS011;11608;50.894;5.296;2022-12-10T07:43:17;58.87;;;42.93;;
22881;SDS011;11608;50.894;5.296;2022-12-10T07:45:43;57.77;;;41.73;;
22881;SDS011;11608;50.894;5.296;2022-12-10T07:48:09;63.20;;;43.33;;
22881;SDS011;11608;50.894;5.296;2022-12-10T07:50:35;61.77;;;44.77;;
22881;SDS011;11608;50.894;5.296;2022-12-10T07:53:01;63.93;;;45.37;;
22881;SDS011;11608;50.894;5.296;2022-12-10T07:55:27;64.47;;;43.43;;
22881;SDS011;11608;50.894;5.296;2022-12-10T07:57:53;65.23;;;45.20;;
22881;SDS011;11608;50.894;5.296;2022-12-10T08:00:19;62.83;;;44.73;;
22881;SDS011;11608;50.894;5.296;2022-12-10T08:02:45;67.13;;;44.93;;
22881;SDS011;11608;50.894;5.296;2022-12-10T08:05:11;62.80;;;43.50;;
22881;SDS011;11608;50.894;5.296;2022-12-10T08:07:37;65.63;;;43.93;;
22881;SDS011;11608;50.894;5.296;2022-12-10T08:10:04;58.20;;;40.90;;
22881;SDS011;11608;50.894;5.296;2022-12-10T08:12:30;61.07;;;41.30;;
22881;SDS011;11608;50.894;5.296;2022-12-10T08:14:56;63.70;;;42.03;;
22881;SDS011;11608;50.894;5.296;2022-12-10T08:17:22;66.20;;;42.70;;
22881;SDS011;11608;50.894;5.296;2022-12-10T08:19:48;57.90;;;41.77;;
22881;SDS011;11608;50.894;5.296;2022-12-10T08:22:15;55.57;;;40.00;;
22881;SDS011;11608;50.894;5.296;2022-12-10T08:24:41;65.80;;;45.50;;
22881;SDS011;11608;50.894;5.296;2022-12-10T08:27:07;67.13;;;45.20;;
22881;SDS011;11608;50.894;5.296;2022-12-10T08:29:33;71.10;;;47.43;;
22881;SDS011;11608;50.894;5.296;2022-12-10T08:31:59;73.00;;;46.93;;
22881;SDS011;11608;50.894;5.296;2022-12-10T08:34:25;71.50;;;45.93;;
22881;SDS011;11608;50.894;5.296;2022-12-10T08:36:51;70.63;;;46.07;;
22881;SDS011;11608;50.894;5.296;2022-12-10T08:39:17;72.87;;;48.17;;
22881;SDS011;11608;50.894;5.296;2022-12-10T08:41:44;81.70;;;48.07;;
22881;SDS011;11608;50.894;5.296;2022-12-10T08:44:11;75.67;;;49.00;;
22881;SDS011;11608;50.894;5.296;2022-12-10T08:46:37;76.97;;;50.57;;
22881;SDS011;11608;50.894;5.296;2022-12-10T08:49:04;69.00;;;45.53;;
22881;SDS011;11608;50.894;5.296;2022-12-10T08:51:31;66.77;;;46.17;;
22881;SDS011;11608;50.894;5.296;2022-12-10T08:53:57;66.57;;;45.80;;
22881;SDS011;11608;50.894;5.296;2022-12-10T08:56:24;66.40;;;43.93;;
22881;SDS011;11608;50.894;5.296;2022-12-10T08:58:50;64.50;;;43.77;;
22881;SDS011;11608;50.894;5.296;2022-12-10T09:01:17;70.73;;;45.10;;
22881;SDS011;11608;50.894;5.296;2022-12-10T09:03:43;75.73;;;45.20;;
22881;SDS011;11608;50.894;5.296;2022-12-10T09:06:11;75.83;;;47.23;;
22881;SDS011;11608;50.894;5.296;2022-12-10T09:08:38;73.93;;;46.00;;
22881;SDS011;11608;50.894;5.296;2022-12-10T09:11:08;72.53;;;48.07;;
22881;SDS011;11608;50.894;5.296;2022-12-10T09:13:34;77.33;;;48.13;;
22881;SDS011;11608;50.894;5.296;2022-12-10T09:16:00;75.20;;;47.20;;
22881;SDS011;11608;50.894;5.296;2022-12-10T09:18:27;83.63;;;48.83;;
22881;SDS011;11608;50.894;5.296;2022-12-10T09:20:53;79.27;;;50.00;;
22881;SDS011;11608;50.894;5.296;2022-12-10T09:23:19;76.40;;;47.23;;
22881;SDS011;11608;50.894;5.296;2022-12-10T09:25:45;81.07;;;48.70;;
22881;SDS011;11608;50.894;5.296;2022-12-10T09:28:11;78.13;;;47.17;;
22881;SDS011;11608;50.894;5.296;2022-12-10T09:30:37;77.13;;;47.93;;
22881;SDS011;11608;50.894;5.296;2022-12-10T09:33:03;80.23;;;49.17;;
22881;SDS011;11608;50.894;5.296;2022-12-10T09:35:29;81.60;;;50.60;;
22881;SDS011;11608;50.894;5.296;2022-12-10T09:37:55;77.73;;;47.50;;
22881;SDS011;11608;50.894;5.296;2022-12-10T09:40:29;84.90;;;49.67;;
22881;SDS011;11608;50.894;5.296;2022-12-10T09:45:40;84.13;;;49.50;;
22881;SDS011;11608;50.894;5.296;2022-12-10T09:50:48;71.43;;;48.17;;
22881;SDS011;11608;50.894;5.296;2022-12-10T09:53:16;80.10;;;48.73;;
22881;SDS011;11608;50.894;5.296;2022-12-10T09:55:44;74.50;;;48.50;;
22881;SDS011;11608;50.894;5.296;2022-12-10T09:58:13;78.73;;;49.87;;
22881;SDS011;11608;50.894;5.296;2022-12-10T10:00:41;73.13;;;47.43;;
22881;SDS011;11608;50.894;5.296;2022-12-10T10:03:11;76.67;;;48.13;;
22881;SDS011;11608;50.894;5.296;2022-12-10T10:10:55;70.77;;;45.50;;
22881;SDS011;11608;50.894;5.296;2022-12-10T10:15:50;77.30;;;48.80;;
22881;SDS011;11608;50.894;5.296;2022-12-10T10:18:26;72.83;;;47.33;;
22881;SDS011;11608;50.894;5.296;2022-12-10T10:20:55;64.03;;;43.77;;
22881;SDS011;11608;50.894;5.296;2022-12-10T10:23:22;78.00;;;47.53;;
22881;SDS011;11608;50.894;5.296;2022-12-10T10:25:48;70.67;;;46.13;;
22881;SDS011;11608;50.894;5.296;2022-12-10T10:28:17;71.90;;;44.47;;
22881;SDS011;11608;50.894;5.296;2022-12-10T10:30:43;82.03;;;50.40;;
22881;SDS011;11608;50.894;5.296;2022-12-10T10:33:10;69.27;;;45.33;;
22881;SDS011;11608;50.894;5.296;2022-12-10T10:38:14;65.50;;;43.87;;
22881;SDS011;11608;50.894;5.296;2022-12-10T10:40:45;71.57;;;44.20;;
22881;SDS011;11608;50.894;5.296;2022-12-10T10:43:17;72.23;;;46.73;;
22881;SDS011;11608;50.894;5.296;2022-12-10T10:45:47;64.77;;;43.70;;
22881;SDS011;11608;50.894;5.296;2022-12-10T10:48:15;61.73;;;43.47;;
22881;SDS011;11608;50.894;5.296;2022-12-10T10:50:51;62.80;;;44.37;;
22881;SDS011;11608;50.894;5.296;2022-12-10T10:55:47;72.70;;;46.27;;
22881;SDS011;11608;50.894;5.296;2022-12-10T10:58:22;66.27;;;43.67;;
22881;SDS011;11608;50.894;5.296;2022-12-10T11:03:21;67.57;;;44.00;;
22881;SDS011;11608;50.894;5.296;2022-12-10T11:05:47;70.40;;;44.77;;
22881;SDS011;11608;50.894;5.296;2022-12-10T11:08:16;62.70;;;41.20;;
22881;SDS011;11608;50.894;5.296;2022-12-10T11:10:49;58.47;;;42.97;;
22881;SDS011;11608;50.894;5.296;2022-12-10T11:13:21;60.20;;;42.20;;
22881;SDS011;11608;50.894;5.296;2022-12-10T11:15:58;67.90;;;45.53;;
22881;SDS011;11608;50.894;5.296;2022-12-10T11:20:58;68.53;;;43.97;;
22881;SDS011;11608;50.894;5.296;2022-12-10T11:23:29;66.83;;;44.00;;
22881;SDS011;11608;50.894;5.296;2022-12-10T11:34:18;76.20;;;45.40;;
22881;SDS011;11608;50.894;5.296;2022-12-10T11:36:31;74.87;;;43.93;;
22881;SDS011;11608;50.894;5.296;2022-12-10T11:41:41;65.10;;;39.60;;
22881;SDS011;11608;50.894;5.296;2022-12-10T11:46:59;53.20;;;38.67;;
22881;SDS011;11608;50.894;5.296;2022-12-10T11:49:42;61.80;;;39.43;;
22881;SDS011;11608;50.894;5.296;2022-12-10T11:59:47;57.53;;;40.27;;
22881;SDS011;11608;50.894;5.296;2022-12-10T12:18:16;72.07;;;43.67;;
22881;SDS011;11608;50.894;5.296;2022-12-10T12:20:42;65.73;;;42.67;;
22881;SDS011;11608;50.894;5.296;2022-12-10T12:23:17;77.00;;;45.43;;
22881;SDS011;11608;50.894;5.296;2022-12-10T12:25:46;74.43;;;45.30;;
22881;SDS011;11608;50.894;5.296;2022-12-10T12:28:24;78.90;;;45.80;;
22881;SDS011;11608;50.894;5.296;2022-12-10T12:30:53;78.53;;;45.43;;
22881;SDS011;11608;50.894;5.296;2022-12-10T12:36:28;68.20;;;43.40;;
22881;SDS011;11608;50.894;5.296;2022-12-10T12:41:34;67.40;;;42.53;;
22881;SDS011;11608;50.894;5.296;2022-12-10T12:44:15;69.00;;;41.17;;
22881;SDS011;11608;50.894;5.296;2022-12-10T12:46:47;72.33;;;43.97;;
22881;SDS011;11608;50.894;5.296;2022-12-10T12:51:58;69.83;;;45.33;;
22881;SDS011;11608;50.894;5.296;2022-12-10T12:54:25;76.53;;;45.27;;
22881;SDS011;11608;50.894;5.296;2022-12-10T12:56:58;72.07;;;44.67;;
22881;SDS011;11608;50.894;5.296;2022-12-10T13:01:57;55.60;;;39.83;;
22881;SDS011;11608;50.894;5.296;2022-12-10T13:04:24;56.60;;;39.67;;
22881;SDS011;11608;50.894;5.296;2022-12-10T13:09:42;63.73;;;42.53;;
22881;SDS011;11608;50.894;5.296;2022-12-10T13:17:33;65.40;;;42.73;;
22881;SDS011;11608;50.894;5.296;2022-12-10T13:22:54;75.47;;;46.00;;
22881;SDS011;11608;50.894;5.296;2022-12-10T13:25:22;78.83;;;46.87;;
22881;SDS011;11608;50.894;5.296;2022-12-10T13:28:15;64.77;;;42.17;;
22881;SDS011;11608;50.894;5.296;2022-12-10T13:30:42;53.00;;;39.20;;
22881;SDS011;11608;50.894;5.296;2022-12-10T13:33:18;57.13;;;39.83;;
22881;SDS011;11608;50.894;5.296;2022-12-10T13:35:56;65.30;;;43.20;;
22881;SDS011;11608;50.894;5.296;2022-12-10T13:38:23;51.53;;;38.90;;
22881;SDS011;11608;50.894;5.296;2022-12-10T13:40:57;56.07;;;37.87;;
22881;SDS011;11608;50.894;5.296;2022-12-10T13:43:42;58.33;;;40.47;;
22881;SDS011;11608;50.894;5.296;2022-12-10T13:49:22;59.40;;;42.03;;
22881;SDS011;11608;50.894;5.296;2022-12-10T14:06:43;73.60;;;45.90;;
22881;SDS011;11608;50.894;5.296;2022-12-10T14:09:16;81.53;;;47.40;;
22881;SDS011;11608;50.894;5.296;2022-12-10T14:12:07;63.90;;;41.33;;
22881;SDS011;11608;50.894;5.296;2022-12-10T14:14:39;53.07;;;37.60;;
22881;SDS011;11608;50.894;5.296;2022-12-10T14:17:09;64.23;;;42.17;;
22881;SDS011;11608;50.894;5.296;2022-12-10T14:19:37;58.70;;;38.23;;
22881;SDS011;11608;50.894;5.296;2022-12-10T14:22:07;50.03;;;38.50;;
22881;SDS011;11608;50.894;5.296;2022-12-10T14:27:01;56.57;;;37.93;;
22881;SDS011;11608;50.894;5.296;2022-12-10T14:29:29;54.30;;;38.27;;
22881;SDS011;11608;50.894;5.296;2022-12-10T14:31:55;52.90;;;39.17;;
22881;SDS011;11608;50.894;5.296;2022-12-10T14:34:26;58.97;;;40.30;;
22881;SDS011;11608;50.894;5.296;2022-12-10T14:36:57;56.27;;;40.10;;
22881;SDS011;11608;50.894;5.296;2022-12-10T14:39:25;58.07;;;40.20;;
22881;SDS011;11608;50.894;5.296;2022-12-10T14:41:53;52.37;;;38.83;;
22881;SDS011;11608;50.894;5.296;2022-12-10T14:44:20;55.27;;;39.57;;
22881;SDS011;11608;50.894;5.296;2022-12-10T14:46:47;53.77;;;40.00;;
22881;SDS011;11608;50.894;5.296;2022-12-10T14:49:21;55.60;;;39.93;;
22881;SDS011;11608;50.894;5.296;2022-12-10T14:51:48;55.43;;;39.17;;
22881;SDS011;11608;50.894;5.296;2022-12-10T14:54:28;56.13;;;39.83;;
22881;SDS011;11608;50.894;5.296;2022-12-10T14:56:56;55.77;;;39.47;;
22881;SDS011;11608;50.894;5.296;2022-12-10T14:59:29;58.70;;;40.07;;
22881;SDS011;11608;50.894;5.296;2022-12-10T15:01:59;56.13;;;40.53;;
22881;SDS011;11608;50.894;5.296;2022-12-10T15:04:29;57.27;;;39.37;;
22881;SDS011;11608;50.894;5.296;2022-12-10T15:06:57;55.27;;;40.20;;
22881;SDS011;11608;50.894;5.296;2022-12-10T15:09:25;45.00;;;36.47;;
22881;SDS011;11608;50.894;5.296;2022-12-10T15:11:55;58.80;;;40.23;;
22881;SDS011;11608;50.894;5.296;2022-12-10T15:14:22;61.07;;;43.63;;
22881;SDS011;11608;50.894;5.296;2022-12-10T15:16:48;64.13;;;43.20;;
22881;SDS011;11608;50.894;5.296;2022-12-10T15:19:24;56.63;;;41.37;;
22881;SDS011;11608;50.894;5.296;2022-12-10T15:21:52;56.23;;;41.03;;
22881;SDS011;11608;50.894;5.296;2022-12-10T15:24:32;54.10;;;38.50;;
22881;SDS011;11608;50.894;5.296;2022-12-10T15:27:02;54.40;;;41.17;;
22881;SDS011;11608;50.894;5.296;2022-12-10T15:29:38;51.27;;;41.20;;
22881;SDS011;11608;50.894;5.296;2022-12-10T15:32:06;55.80;;;41.77;;
22881;SDS011;11608;50.894;5.296;2022-12-10T15:34:40;62.50;;;44.27;;
22881;SDS011;11608;50.894;5.296;2022-12-10T15:37:14;56.80;;;43.93;;
22881;SDS011;11608;50.894;5.296;2022-12-10T15:39:46;60.60;;;42.17;;
22881;SDS011;11608;50.894;5.296;2022-12-10T15:44:59;56.67;;;41.80;;
22881;SDS011;11608;50.894;5.296;2022-12-10T15:47:25;56.77;;;42.00;;
22881;SDS011;11608;50.894;5.296;2022-12-10T15:49:53;49.33;;;40.03;;
22881;SDS011;11608;50.894;5.296;2022-12-10T15:52:21;47.97;;;39.13;;
22881;SDS011;11608;50.894;5.296;2022-12-10T15:54:49;53.10;;;40.50;;
22881;SDS011;11608;50.894;5.296;2022-12-10T15:57:19;60.77;;;44.00;;
22881;SDS011;11608;50.894;5.296;2022-12-10T15:59:50;60.43;;;43.10;;
22881;SDS011;11608;50.894;5.296;2022-12-10T16:04:51;55.70;;;40.40;;
22881;SDS011;11608;50.894;5.296;2022-12-10T16:07:17;60.10;;;41.40;;
22881;SDS011;11608;50.894;5.296;2022-12-10T16:09:44;59.87;;;44.40;;
22881;SDS011;11608;50.894;5.296;2022-12-10T16:12:11;56.00;;;40.93;;
22881;SDS011;11608;50.894;5.296;2022-12-10T16:14:37;68.17;;;46.03;;
22881;SDS011;11608;50.894;5.296;2022-12-10T16:17:03;63.33;;;45.23;;
22881;SDS011;11608;50.894;5.296;2022-12-10T16:19:29;74.73;;;46.73;;
22881;SDS011;11608;50.894;5.296;2022-12-10T16:21:56;57.00;;;45.10;;
22881;SDS011;11608;50.894;5.296;2022-12-10T16:24:22;68.63;;;48.73;;
22881;SDS011;11608;50.894;5.296;2022-12-10T16:26:48;57.73;;;44.43;;
22881;SDS011;11608;50.894;5.296;2022-12-10T16:29:14;63.23;;;45.37;;